Time,TemperatureF,DewpointF,PressureIn,WindDirection,WindDirectionDegrees,WindSpeedMPH,WindSpeedGustMPH,Humidity,HourlyPrecipIn,Conditions,Clouds,dailyrainin,SoftwareType,DateUTC
2013-10-05 00:05:00,64.6,62.8,30.09,SW,225,0.0,0.0,94,0.00,,,0.00,Wunderground v.1.15,2013-10-05 04:05:00,
2013-10-05 00:10:00,64.6,62.8,30.10,SW,225,0.0,0.0,94,0.00,,,0.00,Wunderground v.1.15,2013-10-05 04:10:00,
2013-10-05 00:15:00,64.5,62.7,30.10,SW,225,0.0,0.0,94,0.00,,,0.00,Wunderground v.1.15,2013-10-05 04:15:00,
2013-10-05 00:20:00,64.5,62.7,30.10,SW,225,0.0,0.0,94,0.00,,,0.00,Wunderground v.1.15,2013-10-05 04:20:00,
2013-10-05 00:25:00,64.4,62.6,30.09,SW,225,0.0,0.0,94,0.00,,,0.00,Wunderground v.1.15,2013-10-05 04:25:00,
2013-10-05 00:30:00,64.4,62.6,30.09,SW,225,0.0,0.0,94,0.00,,,0.00,Wunderground v.1.15,2013-10-05 04:30:00,
2013-10-05 00:35:00,64.4,62.6,30.09,SW,225,0.0,0.0,94,0.00,,,0.00,Wunderground v.1.15,2013-10-05 04:35:00,
2013-10-05 00:40:00,64.3,62.5,30.09,SW,225,0.0,0.0,94,0.00,,,0.00,Wunderground v.1.15,2013-10-05 04:40:00,
2013-10-05 00:50:00,64.2,62.4,30.09,SW,225,0.0,0.0,94,0.00,,,0.00,Wunderground v.1.15,2013-10-05 04:50:00,
2013-10-05 00:55:00,64.2,62.4,30.10,SW,225,0.0,0.0,94,0.00,,,0.00,Wunderground v.1.15,2013-10-05 04:55:00,
2013-10-05 01:00:00,64.1,62.6,30.09,SW,225,0.0,0.0,95,0.00,,,0.00,Wunderground v.1.15,2013-10-05 05:00:00,
2013-10-05 01:10:00,64.1,62.6,30.09,SW,225,0.0,0.0,95,0.00,,,0.00,Wunderground v.1.15,2013-10-05 05:10:00,
2013-10-05 01:15:00,64.0,62.5,30.09,SW,225,0.0,0.0,95,0.00,,,0.00,Wunderground v.1.15,2013-10-05 05:15:00,
2013-10-05 01:20:00,64.0,62.2,30.09,SW,225,0.0,0.0,94,0.00,,,0.00,Wunderground v.1.15,2013-10-05 05:20:00,
2013-10-05 01:25:00,63.9,62.4,30.09,SW,225,0.0,0.0,95,0.00,,,0.00,Wunderground v.1.15,2013-10-05 05:25:00,
2013-10-05 01:30:00,63.9,62.4,30.09,SW,225,0.0,0.0,95,0.00,,,0.00,Wunderground v.1.15,2013-10-05 05:30:00,
2013-10-05 01:35:00,63.8,62.3,30.09,SW,225,0.0,0.0,95,0.00,,,0.00,Wunderground v.1.15,2013-10-05 05:35:00,
2013-10-05 01:40:00,63.7,62.2,30.09,SW,225,0.0,0.0,95,0.00,,,0.00,Wunderground v.1.15,2013-10-05 05:40:00,
2013-10-05 01:50:00,63.6,62.1,30.10,SW,225,0.0,0.0,95,0.00,,,0.00,Wunderground v.1.15,2013-10-05 05:50:00,
2013-10-05 01:55:00,63.5,62.0,30.09,SW,225,0.0,0.0,95,0.00,,,0.00,Wunderground v.1.15,2013-10-05 05:55:00,
2013-10-05 02:00:00,63.4,61.9,30.10,SW,225,0.0,0.0,95,0.00,,,0.00,Wunderground v.1.15,2013-10-05 06:00:00,
2013-10-05 02:05:00,63.4,61.9,30.10,SW,225,0.0,0.0,95,0.00,,,0.00,Wunderground v.1.15,2013-10-05 06:05:00,
2013-10-05 02:10:00,63.4,61.9,30.09,SW,225,0.0,0.0,95,0.00,,,0.00,Wunderground v.1.15,2013-10-05 06:10:00,
2013-10-05 02:15:00,63.3,61.8,30.09,SW,225,0.0,0.0,95,0.00,,,0.00,Wunderground v.1.15,2013-10-05 06:15:00,
2013-10-05 02:25:00,63.2,61.7,30.09,SW,225,0.0,0.0,95,0.00,,,0.00,Wunderground v.1.15,2013-10-05 06:25:00,
2013-10-05 02:30:00,63.2,61.7,30.09,SW,225,0.0,0.0,95,0.00,,,0.00,Wunderground v.1.15,2013-10-05 06:30:00,
2013-10-05 02:40:00,63.0,61.5,30.09,SW,225,0.0,0.0,95,0.00,,,0.00,Wunderground v.1.15,2013-10-05 06:40:00,
2013-10-05 02:50:00,62.8,61.3,30.09,SW,225,0.0,0.0,95,0.00,,,0.00,Wunderground v.1.15,2013-10-05 06:50:00,
2013-10-05 02:55:00,62.8,61.3,30.09,SW,225,0.0,0.0,95,0.00,,,0.00,Wunderground v.1.15,2013-10-05 06:55:00,
2013-10-05 03:00:00,62.7,61.2,30.09,SW,225,0.0,0.0,95,0.00,,,0.00,Wunderground v.1.15,2013-10-05 07:00:00,
2013-10-05 03:05:00,62.7,61.2,30.09,SW,225,0.0,0.0,95,0.00,,,0.00,Wunderground v.1.15,2013-10-05 07:05:00,
2013-10-05 03:15:00,62.6,61.1,30.08,SW,225,0.0,0.0,95,0.00,,,0.00,Wunderground v.1.15,2013-10-05 07:15:00,
2013-10-05 03:20:00,62.6,61.1,30.08,SW,225,0.0,0.0,95,0.00,,,0.00,Wunderground v.1.15,2013-10-05 07:20:00,
2013-10-05 03:25:00,62.4,60.9,30.08,SW,225,0.0,0.0,95,0.00,,,0.00,Wunderground v.1.15,2013-10-05 07:25:00,
2013-10-05 03:35:00,62.4,60.9,30.09,SW,225,0.0,0.0,95,0.00,,,0.00,Wunderground v.1.15,2013-10-05 07:35:00,
2013-10-05 03:40:00,62.4,60.9,30.09,SW,225,0.0,0.0,95,0.00,,,0.00,Wunderground v.1.15,2013-10-05 07:40:00,
2013-10-05 03:45:00,62.4,60.9,30.08,SW,225,0.0,0.0,95,0.00,,,0.00,Wunderground v.1.15,2013-10-05 07:45:00,
2013-10-05 03:50:00,62.3,60.8,30.08,SW,225,0.0,0.0,95,0.00,,,0.00,Wunderground v.1.15,2013-10-05 07:50:00,
2013-10-05 03:55:00,62.3,60.8,30.08,SW,225,0.0,0.0,95,0.00,,,0.00,Wunderground v.1.15,2013-10-05 07:55:00,
2013-10-05 04:00:00,62.2,60.8,30.08,SW,225,0.0,0.0,95,0.00,,,0.00,Wunderground v.1.15,2013-10-05 08:00:00,
2013-10-05 04:05:00,62.2,60.8,30.08,SW,225,0.0,0.0,95,0.00,,,0.00,Wunderground v.1.15,2013-10-05 08:05:00,
2013-10-05 04:10:00,62.1,60.7,30.08,SW,225,0.0,0.0,95,0.00,,,0.00,Wunderground v.1.15,2013-10-05 08:10:00,
2013-10-05 04:15:00,62.0,60.6,30.08,SW,225,0.0,0.0,95,0.00,,,0.00,Wunderground v.1.15,2013-10-05 08:15:00,
2013-10-05 04:20:00,62.0,60.6,30.08,SW,225,0.0,0.0,95,0.00,,,0.00,Wunderground v.1.15,2013-10-05 08:20:00,
2013-10-05 04:25:00,62.0,60.6,30.08,SW,225,0.0,0.0,95,0.00,,,0.00,Wunderground v.1.15,2013-10-05 08:25:00,
2013-10-05 04:30:00,62.1,60.7,30.08,SW,225,0.0,0.0,95,0.00,,,0.00,Wunderground v.1.15,2013-10-05 08:30:00,
2013-10-05 04:35:00,62.1,60.7,30.08,SW,225,0.0,0.0,95,0.00,,,0.00,Wunderground v.1.15,2013-10-05 08:35:00,
2013-10-05 04:40:00,62.1,60.9,30.09,SW,225,0.0,0.0,96,0.00,,,0.00,Wunderground v.1.15,2013-10-05 08:40:00,
2013-10-05 04:45:00,62.2,61.0,30.09,SW,225,0.0,0.0,96,0.00,,,0.00,Wunderground v.1.15,2013-10-05 08:45:00,
2013-10-05 04:50:00,62.2,61.0,30.09,SW,225,0.0,0.0,96,0.00,,,0.00,Wunderground v.1.15,2013-10-05 08:50:00,
2013-10-05 04:55:00,62.1,60.9,30.09,SW,225,0.0,0.0,96,0.00,,,0.00,Wunderground v.1.15,2013-10-05 08:55:00,
2013-10-05 05:05:00,62.2,61.0,30.08,SW,225,0.0,0.0,96,0.00,,,0.00,Wunderground v.1.15,2013-10-05 09:05:00,
2013-10-05 05:10:00,62.2,61.0,30.08,SW,225,0.0,0.0,96,0.00,,,0.00,Wunderground v.1.15,2013-10-05 09:10:00,
2013-10-05 05:15:00,62.2,61.0,30.09,SW,225,0.0,0.0,96,0.00,,,0.00,Wunderground v.1.15,2013-10-05 09:15:00,
2013-10-05 05:20:00,62.2,61.0,30.09,SW,225,0.0,0.0,96,0.00,,,0.00,Wunderground v.1.15,2013-10-05 09:20:00,
2013-10-05 05:25:00,62.2,61.0,30.09,SW,225,0.0,0.0,96,0.00,,,0.00,Wunderground v.1.15,2013-10-05 09:25:00,
2013-10-05 05:30:00,62.1,60.9,30.09,SW,225,0.0,0.0,96,0.00,,,0.00,Wunderground v.1.15,2013-10-05 09:30:00,
2013-10-05 05:35:00,62.0,60.8,30.09,SW,225,0.0,0.0,96,0.00,,,0.00,Wunderground v.1.15,2013-10-05 09:35:00,
2013-10-05 05:40:00,62.0,60.8,30.10,SW,225,0.0,0.0,96,0.00,,,0.00,Wunderground v.1.15,2013-10-05 09:40:00,
2013-10-05 05:45:00,62.0,60.8,30.10,SW,225,0.0,0.0,96,0.00,,,0.00,Wunderground v.1.15,2013-10-05 09:45:00,
2013-10-05 05:50:00,61.9,60.7,30.10,SW,225,0.0,0.0,96,0.00,,,0.00,Wunderground v.1.15,2013-10-05 09:50:00,
2013-10-05 05:55:00,61.8,60.6,30.10,SW,225,0.0,0.0,96,0.00,,,0.00,Wunderground v.1.15,2013-10-05 09:55:00,
2013-10-05 06:00:00,61.8,60.6,30.10,SW,225,0.0,0.0,96,0.00,,,0.00,Wunderground v.1.15,2013-10-05 10:00:00,
2013-10-05 06:05:00,61.8,60.6,30.10,SW,225,0.0,0.0,96,0.00,,,0.00,Wunderground v.1.15,2013-10-05 10:05:00,
2013-10-05 06:10:00,61.7,60.5,30.10,SW,225,0.0,0.0,96,0.00,,,0.00,Wunderground v.1.15,2013-10-05 10:10:00,
2013-10-05 06:15:00,61.7,60.5,30.11,SW,225,0.0,0.0,96,0.00,,,0.00,Wunderground v.1.15,2013-10-05 10:15:00,
2013-10-05 06:20:00,61.7,60.5,30.11,SW,225,0.0,0.0,96,0.00,,,0.00,Wunderground v.1.15,2013-10-05 10:20:00,
2013-10-05 06:25:00,61.6,60.4,30.11,SW,225,0.0,0.0,96,0.00,,,0.00,Wunderground v.1.15,2013-10-05 10:25:00,
2013-10-05 06:30:00,61.5,60.3,30.11,SW,225,0.0,0.0,96,0.00,,,0.00,Wunderground v.1.15,2013-10-05 10:30:00,
2013-10-05 06:35:00,61.4,60.2,30.11,SW,225,0.0,0.0,96,0.00,,,0.00,Wunderground v.1.15,2013-10-05 10:35:00,
2013-10-05 06:40:00,61.5,60.3,30.11,SW,225,0.0,0.0,96,0.00,,,0.00,Wunderground v.1.15,2013-10-05 10:40:00,
2013-10-05 06:45:00,61.5,60.3,30.11,SW,225,0.0,0.0,96,0.00,,,0.00,Wunderground v.1.15,2013-10-05 10:45:00,
2013-10-05 06:50:00,61.5,60.3,30.11,SW,225,0.0,0.0,96,0.00,,,0.00,Wunderground v.1.15,2013-10-05 10:50:00,
2013-10-05 06:55:00,61.5,60.3,30.11,SW,225,0.0,0.0,96,0.00,,,0.00,Wunderground v.1.15,2013-10-05 10:55:00,
2013-10-05 07:05:00,61.4,60.2,30.11,SW,225,0.0,0.0,96,0.00,,,0.00,Wunderground v.1.15,2013-10-05 11:05:00,
2013-10-05 07:10:00,61.4,60.2,30.11,SW,225,0.0,0.0,96,0.00,,,0.00,Wunderground v.1.15,2013-10-05 11:10:00,
2013-10-05 07:20:00,61.3,60.2,30.11,SW,225,0.0,0.0,96,0.00,,,0.00,Wunderground v.1.15,2013-10-05 11:20:00,
2013-10-05 07:35:00,61.2,60.1,30.11,SW,225,0.0,0.0,96,0.00,,,0.00,Wunderground v.1.15,2013-10-05 11:35:00,
2013-10-05 07:40:00,61.2,60.1,30.12,SW,225,0.0,0.0,96,0.00,,,0.00,Wunderground v.1.15,2013-10-05 11:40:00,
2013-10-05 07:45:00,61.1,60.0,30.11,SW,225,0.0,0.0,96,0.00,,,0.00,Wunderground v.1.15,2013-10-05 11:45:00,
2013-10-05 07:50:00,61.1,60.0,30.11,SW,225,0.0,0.0,96,0.00,,,0.00,Wunderground v.1.15,2013-10-05 11:50:00,
2013-10-05 07:55:00,61.2,60.1,30.12,SW,225,0.0,0.0,96,0.00,,,0.00,Wunderground v.1.15,2013-10-05 11:55:00,
2013-10-05 08:00:00,61.3,60.2,30.12,SW,225,0.0,0.0,96,0.00,,,0.00,Wunderground v.1.15,2013-10-05 12:00:00,
2013-10-05 08:05:00,61.5,60.3,30.12,SW,225,0.0,0.0,96,0.00,,,0.00,Wunderground v.1.15,2013-10-05 12:05:00,
2013-10-05 08:10:00,61.8,60.6,30.12,SW,225,0.0,0.0,96,0.00,,,0.00,Wunderground v.1.15,2013-10-05 12:10:00,
2013-10-05 08:20:00,61.9,60.7,30.12,SW,225,0.0,0.0,96,0.00,,,0.00,Wunderground v.1.15,2013-10-05 12:20:00,
2013-10-05 08:25:00,62.1,60.9,30.12,SW,225,0.0,0.0,96,0.00,,,0.00,Wunderground v.1.15,2013-10-05 12:25:00,
2013-10-05 08:30:00,62.5,61.3,30.12,SW,225,0.0,0.0,96,0.00,,,0.00,Wunderground v.1.15,2013-10-05 12:30:00,
2013-10-05 08:35:00,62.7,61.8,30.12,SW,225,0.0,0.0,97,0.00,,,0.00,Wunderground v.1.15,2013-10-05 12:35:00,
2013-10-05 08:40:00,63.1,62.2,30.12,SW,225,0.0,0.0,97,0.00,,,0.00,Wunderground v.1.15,2013-10-05 12:40:00,
2013-10-05 08:45:00,63.5,62.6,30.12,SW,225,0.0,0.0,97,0.00,,,0.00,Wunderground v.1.15,2013-10-05 12:45:00,
2013-10-05 08:50:00,63.7,62.8,30.12,SW,225,0.0,0.0,97,0.00,,,0.00,Wunderground v.1.15,2013-10-05 12:50:00,
2013-10-05 08:55:00,64.0,63.1,30.12,SW,225,0.0,0.0,97,0.00,,,0.00,Wunderground v.1.15,2013-10-05 12:55:00,
2013-10-05 09:05:00,64.9,64.0,30.12,SW,225,0.0,0.0,97,0.00,,,0.00,Wunderground v.1.15,2013-10-05 13:05:00,
2013-10-05 09:10:00,65.4,64.5,30.12,SW,225,0.0,0.0,97,0.00,,,0.00,Wunderground v.1.15,2013-10-05 13:10:00,
2013-10-05 09:15:00,65.7,64.8,30.12,SW,225,0.0,0.0,97,0.00,,,0.00,Wunderground v.1.15,2013-10-05 13:15:00,
2013-10-05 09:20:00,66.0,65.1,30.12,SW,225,0.0,0.0,97,0.00,,,0.00,Wunderground v.1.15,2013-10-05 13:20:00,
2013-10-05 09:25:00,66.3,65.4,30.12,SW,225,0.0,0.0,97,0.00,,,0.00,Wunderground v.1.15,2013-10-05 13:25:00,
2013-10-05 09:35:00,67.0,66.1,30.12,SW,225,0.0,0.0,97,0.00,,,0.00,Wunderground v.1.15,2013-10-05 13:35:00,
2013-10-05 09:40:00,67.4,66.5,30.12,SW,225,0.0,0.0,97,0.00,,,0.00,Wunderground v.1.15,2013-10-05 13:40:00,
2013-10-05 09:45:00,68.0,66.8,30.12,SW,225,0.0,0.0,96,0.00,,,0.00,Wunderground v.1.15,2013-10-05 13:45:00,
2013-10-05 09:50:00,68.5,67.3,30.12,SW,225,0.0,0.0,96,0.00,,,0.00,Wunderground v.1.15,2013-10-05 13:50:00,
2013-10-05 09:55:00,69.2,67.4,30.12,SW,225,0.0,0.0,94,0.00,,,0.00,Wunderground v.1.15,2013-10-05 13:55:00,
2013-10-05 10:05:00,71.2,68.4,30.12,SW,225,0.0,0.0,91,0.00,,,0.00,Wunderground v.1.15,2013-10-05 14:05:00,
2013-10-05 10:10:00,71.9,68.5,30.13,SW,225,0.0,0.0,89,0.00,,,0.00,Wunderground v.1.15,2013-10-05 14:10:00,
2013-10-05 10:15:00,73.0,68.6,30.12,SW,225,0.0,0.0,86,0.00,,,0.00,Wunderground v.1.15,2013-10-05 14:15:00,
2013-10-05 10:20:00,73.7,68.9,30.12,SW,225,0.0,0.0,85,0.00,,,0.00,Wunderground v.1.15,2013-10-05 14:20:00,
2013-10-05 10:25:00,74.8,69.3,30.12,SW,225,0.0,0.0,83,0.00,,,0.00,Wunderground v.1.15,2013-10-05 14:25:00,
2013-10-05 10:30:00,76.2,70.3,30.12,SW,225,0.0,0.0,82,0.00,,,0.00,Wunderground v.1.15,2013-10-05 14:30:00,
2013-10-05 10:40:00,77.6,69.8,30.12,SW,225,0.0,0.0,77,0.00,,,0.00,Wunderground v.1.15,2013-10-05 14:40:00,
2013-10-05 10:50:00,79.0,68.4,30.12,SW,225,0.0,0.0,70,0.00,,,0.00,Wunderground v.1.15,2013-10-05 14:50:00,
2013-10-05 10:55:00,80.0,70.2,30.12,SW,225,0.0,0.0,72,0.00,,,0.00,Wunderground v.1.15,2013-10-05 14:55:00,
2013-10-05 11:05:00,80.7,70.4,30.11,SW,225,0.0,0.0,71,0.00,,,0.00,Wunderground v.1.15,2013-10-05 15:05:00,
2013-10-05 11:10:00,80.5,69.0,30.11,SW,225,0.0,0.0,68,0.00,,,0.00,Wunderground v.1.15,2013-10-05 15:10:00,
2013-10-05 11:15:00,81.1,69.5,30.11,SW,225,0.0,0.0,68,0.00,,,0.00,Wunderground v.1.15,2013-10-05 15:15:00,
2013-10-05 11:20:00,81.8,70.2,30.11,SW,225,0.0,0.0,68,0.00,,,0.00,Wunderground v.1.15,2013-10-05 15:20:00,
2013-10-05 11:25:00,82.1,70.9,30.11,SW,225,0.0,0.0,69,0.00,,,0.00,Wunderground v.1.15,2013-10-05 15:25:00,
2013-10-05 11:30:00,82.4,69.4,30.11,SW,225,0.0,0.0,65,0.00,,,0.00,Wunderground v.1.15,2013-10-05 15:30:00,
2013-10-05 11:35:00,82.9,69.9,30.11,SW,225,0.0,0.0,65,0.00,,,0.00,Wunderground v.1.15,2013-10-05 15:35:00,
2013-10-05 11:45:00,83.7,71.1,30.11,SW,225,0.0,0.0,66,0.00,,,0.00,Wunderground v.1.15,2013-10-05 15:45:00,
2013-10-05 11:50:00,83.9,70.0,30.11,SW,225,0.0,0.0,63,0.00,,,0.00,Wunderground v.1.15,2013-10-05 15:50:00,
2013-10-05 11:55:00,84.1,70.6,30.11,SW,225,0.0,0.0,64,0.00,,,0.00,Wunderground v.1.15,2013-10-05 15:55:00,
2013-10-05 12:05:00,84.5,70.5,30.11,SW,225,0.0,0.0,63,0.00,,,0.00,Wunderground v.1.15,2013-10-05 16:05:00,
2013-10-05 12:10:00,84.8,69.4,30.10,SW,225,0.0,0.0,60,0.00,,,0.00,Wunderground v.1.15,2013-10-05 16:10:00,
2013-10-05 12:20:00,86.1,70.1,30.10,SW,225,0.0,0.0,59,0.00,,,0.00,Wunderground v.1.15,2013-10-05 16:20:00,
2013-10-05 12:25:00,86.6,68.5,30.10,East,88,0.0,0.0,55,0.00,,,0.00,Wunderground v.1.15,2013-10-05 16:25:00,
2013-10-05 12:30:00,86.4,67.8,30.10,East,95,0.0,0.0,54,0.00,,,0.00,Wunderground v.1.15,2013-10-05 16:30:00,
2013-10-05 12:35:00,86.5,69.5,30.10,ENE,59,0.0,0.0,57,0.00,,,0.00,Wunderground v.1.15,2013-10-05 16:35:00,
2013-10-05 12:40:00,86.8,69.2,30.10,ENE,75,0.0,0.0,56,0.00,,,0.00,Wunderground v.1.15,2013-10-05 16:40:00,
2013-10-05 12:45:00,87.1,69.0,30.10,ENE,75,0.0,0.0,55,0.00,,,0.00,Wunderground v.1.15,2013-10-05 16:45:00,
2013-10-05 12:50:00,87.2,69.6,30.09,ENE,75,0.0,0.0,56,0.00,,,0.00,Wunderground v.1.15,2013-10-05 16:50:00,
2013-10-05 12:55:00,87.1,69.5,30.09,ENE,76,0.0,0.0,56,0.00,,,0.00,Wunderground v.1.15,2013-10-05 16:55:00,
2013-10-05 13:05:00,86.7,69.1,30.09,ENE,76,0.0,0.0,56,0.00,,,0.00,Wunderground v.1.15,2013-10-05 17:05:00,
2013-10-05 13:10:00,86.6,68.5,30.08,East,86,0.0,0.0,55,0.00,,,0.00,Wunderground v.1.15,2013-10-05 17:10:00,
2013-10-05 13:15:00,86.4,69.4,30.08,WNW,294,0.0,0.0,57,0.00,,,0.00,Wunderground v.1.15,2013-10-05 17:15:00,
2013-10-05 13:20:00,86.4,70.9,30.08,WNW,294,0.0,0.0,60,0.00,,,0.00,Wunderground v.1.15,2013-10-05 17:20:00,
2013-10-05 13:25:00,86.9,67.7,30.08,WNW,294,0.0,0.0,53,0.00,,,0.00,Wunderground v.1.15,2013-10-05 17:25:00,
2013-10-05 13:30:00,87.1,70.0,30.08,WNW,294,0.0,0.0,57,0.00,,,0.00,Wunderground v.1.15,2013-10-05 17:30:00,
2013-10-05 13:40:00,86.2,69.2,30.08,WNW,294,0.0,0.0,57,0.00,,,0.00,Wunderground v.1.15,2013-10-05 17:40:00,
2013-10-05 13:50:00,85.7,68.2,30.07,WNW,294,0.0,0.0,56,0.00,,,0.00,Wunderground v.1.15,2013-10-05 17:50:00,
2013-10-05 13:55:00,86.0,67.4,30.07,West,271,0.0,0.0,54,0.00,,,0.00,Wunderground v.1.15,2013-10-05 17:55:00,
2013-10-05 14:05:00,85.7,69.7,30.07,West,271,0.0,0.0,59,0.00,,,0.00,Wunderground v.1.15,2013-10-05 18:05:00,
2013-10-05 14:10:00,85.5,70.0,30.07,West,271,0.0,0.0,60,0.00,,,0.00,Wunderground v.1.15,2013-10-05 18:10:00,
2013-10-05 14:15:00,85.2,69.3,30.06,North,360,0.0,0.0,59,0.00,,,0.00,Wunderground v.1.15,2013-10-05 18:15:00,
2013-10-05 14:20:00,85.5,68.0,30.06,North,355,0.0,0.0,56,0.00,,,0.00,Wunderground v.1.15,2013-10-05 18:20:00,
2013-10-05 14:25:00,85.9,68.4,30.06,NW,315,0.0,0.0,56,0.00,,,0.00,Wunderground v.1.15,2013-10-05 18:25:00,
2013-10-05 14:30:00,86.5,69.5,30.06,NW,312,0.0,0.0,57,0.00,,,0.00,Wunderground v.1.15,2013-10-05 18:30:00,
2013-10-05 14:35:00,86.8,69.2,30.06,West,277,0.0,0.0,56,0.00,,,0.00,Wunderground v.1.15,2013-10-05 18:35:00,
2013-10-05 14:40:00,86.7,68.1,30.06,West,277,0.0,0.0,54,0.00,,,0.00,Wunderground v.1.15,2013-10-05 18:40:00,
2013-10-05 14:45:00,86.8,67.1,30.06,West,267,0.0,0.0,52,0.00,,,0.00,Wunderground v.1.15,2013-10-05 18:45:00,
2013-10-05 14:50:00,86.8,67.6,30.06,West,267,0.0,0.0,53,0.00,,,0.00,Wunderground v.1.15,2013-10-05 18:50:00,
2013-10-05 14:55:00,87.2,68.5,30.06,West,267,0.0,0.0,54,0.00,,,0.00,Wunderground v.1.15,2013-10-05 18:55:00,
2013-10-05 15:05:00,88.2,70.0,30.05,SW,233,0.0,0.0,55,0.00,,,0.00,Wunderground v.1.15,2013-10-05 19:05:00,
2013-10-05 15:10:00,88.4,68.0,30.05,SW,233,0.0,0.0,51,0.00,,,0.00,Wunderground v.1.15,2013-10-05 19:10:00,
2013-10-05 15:15:00,89.0,69.6,30.05,SW,233,0.0,0.0,53,0.00,,,0.00,Wunderground v.1.15,2013-10-05 19:15:00,
2013-10-05 15:20:00,89.2,68.1,30.05,East,98,0.0,1.0,50,0.00,,,0.00,Wunderground v.1.15,2013-10-05 19:20:00,
2013-10-05 15:25:00,89.0,67.9,30.05,SSW,200,0.0,0.0,50,0.00,,,0.00,Wunderground v.1.15,2013-10-05 19:25:00,
2013-10-05 15:30:00,88.7,67.7,30.05,SE,129,0.0,0.0,50,0.00,,,0.00,Wunderground v.1.15,2013-10-05 19:30:00,
2013-10-05 15:40:00,88.9,67.3,30.05,SE,146,0.0,0.0,49,0.00,,,0.00,Wunderground v.1.15,2013-10-05 19:40:00,
2013-10-05 15:45:00,89.0,67.4,30.05,SE,146,0.0,0.0,49,0.00,,,0.00,Wunderground v.1.15,2013-10-05 19:45:00,
2013-10-05 15:50:00,89.2,69.3,30.05,SE,146,0.0,0.0,52,0.00,,,0.00,Wunderground v.1.15,2013-10-05 19:50:00,
2013-10-05 15:55:00,89.0,67.9,30.05,SW,220,0.0,0.0,50,0.00,,,0.00,Wunderground v.1.15,2013-10-05 19:55:00,
2013-10-05 16:05:00,89.2,68.7,30.04,SW,223,0.0,0.0,51,0.00,,,0.00,Wunderground v.1.15,2013-10-05 20:05:00,
2013-10-05 16:10:00,88.7,68.8,30.04,SW,223,0.0,0.0,52,0.00,,,0.00,Wunderground v.1.15,2013-10-05 20:10:00,
2013-10-05 16:15:00,88.4,68.5,30.04,SW,223,0.0,0.0,52,0.00,,,0.00,Wunderground v.1.15,2013-10-05 20:15:00,
2013-10-05 16:25:00,88.4,66.8,30.04,SW,223,0.0,0.0,49,0.00,,,0.00,Wunderground v.1.15,2013-10-05 20:25:00,
2013-10-05 16:30:00,88.3,67.3,30.04,SW,223,0.0,0.0,50,0.00,,,0.00,Wunderground v.1.15,2013-10-05 20:30:00,
2013-10-05 16:35:00,88.2,67.2,30.04,SW,223,0.0,0.0,50,0.00,,,0.00,Wunderground v.1.15,2013-10-05 20:35:00,
2013-10-05 16:40:00,88.2,67.8,30.04,SW,223,0.0,0.0,51,0.00,,,0.00,Wunderground v.1.15,2013-10-05 20:40:00,
2013-10-05 16:45:00,88.2,67.2,30.04,SW,223,0.0,0.0,50,0.00,,,0.00,Wunderground v.1.15,2013-10-05 20:45:00,
2013-10-05 16:50:00,88.0,67.6,30.04,SW,223,0.0,0.0,51,0.00,,,0.00,Wunderground v.1.15,2013-10-05 20:50:00,
2013-10-05 16:55:00,88.1,68.3,30.04,SW,223,0.0,0.0,52,0.00,,,0.00,Wunderground v.1.15,2013-10-05 20:55:00,
2013-10-05 17:00:00,88.0,68.7,30.03,SW,223,0.0,0.0,53,0.00,,,0.00,Wunderground v.1.15,2013-10-05 21:00:00,
2013-10-05 17:05:00,87.9,68.1,30.03,SW,223,0.0,0.0,52,0.00,,,0.00,Wunderground v.1.15,2013-10-05 21:05:00,
2013-10-05 17:10:00,87.7,68.4,30.03,SW,223,0.0,0.0,53,0.00,,,0.00,Wunderground v.1.15,2013-10-05 21:10:00,
2013-10-05 17:15:00,87.2,68.5,30.03,SW,223,0.0,0.0,54,0.00,,,0.00,Wunderground v.1.15,2013-10-05 21:15:00,
2013-10-05 17:20:00,86.6,69.0,30.03,SW,223,0.0,0.0,56,0.00,,,0.00,Wunderground v.1.15,2013-10-05 21:20:00,
2013-10-05 17:25:00,85.9,68.9,30.03,SW,223,0.0,0.0,57,0.00,,,0.00,Wunderground v.1.15,2013-10-05 21:25:00,
2013-10-05 17:30:00,85.2,68.8,30.03,SW,223,0.0,0.0,58,0.00,,,0.00,Wunderground v.1.15,2013-10-05 21:30:00,
2013-10-05 17:35:00,84.8,68.9,30.03,SW,223,0.0,0.0,59,0.00,,,0.00,Wunderground v.1.15,2013-10-05 21:35:00,
2013-10-05 17:45:00,83.9,69.5,30.03,SW,223,0.0,0.0,62,0.00,,,0.00,Wunderground v.1.15,2013-10-05 21:45:00,
2013-10-05 17:50:00,83.6,70.1,30.03,SW,223,0.0,0.0,64,0.00,,,0.00,Wunderground v.1.15,2013-10-05 21:50:00,
2013-10-05 17:55:00,83.2,70.2,30.03,SW,223,0.0,0.0,65,0.00,,,0.00,Wunderground v.1.15,2013-10-05 21:55:00,
2013-10-05 18:00:00,82.6,70.5,30.03,SW,223,0.0,0.0,67,0.00,,,0.00,Wunderground v.1.15,2013-10-05 22:00:00,
2013-10-05 18:05:00,82.2,70.6,30.03,SW,223,0.0,0.0,68,0.00,,,0.00,Wunderground v.1.15,2013-10-05 22:05:00,
2013-10-05 18:15:00,81.0,69.9,30.03,SW,223,0.0,0.0,69,0.00,,,0.00,Wunderground v.1.15,2013-10-05 22:15:00,
2013-10-05 18:20:00,80.6,69.9,30.04,SW,223,0.0,0.0,70,0.00,,,0.00,Wunderground v.1.15,2013-10-05 22:20:00,
2013-10-05 18:25:00,80.1,70.3,30.03,SW,223,0.0,0.0,72,0.00,,,0.00,Wunderground v.1.15,2013-10-05 22:25:00,
2013-10-05 18:30:00,79.6,70.6,30.03,SW,223,0.0,0.0,74,0.00,,,0.00,Wunderground v.1.15,2013-10-05 22:30:00,
2013-10-05 18:35:00,79.1,70.1,30.03,SW,223,0.0,0.0,74,0.00,,,0.00,Wunderground v.1.15,2013-10-05 22:35:00,
2013-10-05 18:40:00,78.6,70.4,30.04,SW,223,0.0,0.0,76,0.00,,,0.00,Wunderground v.1.15,2013-10-05 22:40:00,
2013-10-05 18:50:00,77.7,70.7,30.03,SW,223,0.0,0.0,79,0.00,,,0.00,Wunderground v.1.15,2013-10-05 22:50:00,
2013-10-05 18:55:00,77.3,70.3,30.04,SW,223,0.0,0.0,79,0.00,,,0.00,Wunderground v.1.15,2013-10-05 22:55:00,
2013-10-05 19:05:00,76.4,70.5,30.03,SW,223,0.0,0.0,82,0.00,,,0.00,Wunderground v.1.15,2013-10-05 23:05:00,
2013-10-05 19:10:00,75.9,70.4,30.04,SW,223,0.0,0.0,83,0.00,,,0.00,Wunderground v.1.15,2013-10-05 23:10:00,
2013-10-05 19:15:00,75.3,70.1,30.04,SW,223,0.0,0.0,84,0.00,,,0.00,Wunderground v.1.15,2013-10-05 23:15:00,
2013-10-05 19:20:00,74.8,69.6,30.04,SW,223,0.0,0.0,84,0.00,,,0.00,Wunderground v.1.15,2013-10-05 23:20:00,
2013-10-05 19:25:00,74.3,69.5,30.04,SW,223,0.0,0.0,85,0.00,,,0.00,Wunderground v.1.15,2013-10-05 23:25:00,
2013-10-05 19:30:00,73.9,69.4,30.04,SW,223,0.0,0.0,86,0.00,,,0.00,Wunderground v.1.15,2013-10-05 23:30:00,
2013-10-05 19:35:00,73.6,69.2,30.04,SW,223,0.0,0.0,86,0.00,,,0.00,Wunderground v.1.15,2013-10-05 23:35:00,
2013-10-05 19:40:00,73.2,68.8,30.04,SW,223,0.0,0.0,86,0.00,,,0.00,Wunderground v.1.15,2013-10-05 23:40:00,
2013-10-05 19:45:00,72.9,68.8,30.05,SW,223,0.0,0.0,87,0.00,,,0.00,Wunderground v.1.15,2013-10-05 23:45:00,
2013-10-05 19:50:00,72.6,68.5,30.04,SW,223,0.0,0.0,87,0.00,,,0.00,Wunderground v.1.15,2013-10-05 23:50:00,
2013-10-05 19:55:00,72.3,68.2,30.05,SW,223,0.0,0.0,87,0.00,,,0.00,Wunderground v.1.15,2013-10-05 23:55:00,
2013-10-05 20:00:00,71.9,67.8,30.05,SW,223,0.0,0.0,87,0.00,,,0.00,Wunderground v.1.15,2013-10-06 00:00:00,
2013-10-05 20:05:00,71.7,68.0,30.05,SW,223,0.0,0.0,88,0.00,,,0.00,Wunderground v.1.15,2013-10-06 00:05:00,
2013-10-05 20:10:00,71.5,67.8,30.05,SW,223,0.0,0.0,88,0.00,,,0.00,Wunderground v.1.15,2013-10-06 00:10:00,
2013-10-05 20:15:00,71.3,67.6,30.05,SW,223,0.0,0.0,88,0.00,,,0.00,Wunderground v.1.15,2013-10-06 00:15:00,
2013-10-05 20:20:00,71.1,67.7,30.05,SW,223,0.0,0.0,89,0.00,,,0.00,Wunderground v.1.15,2013-10-06 00:20:00,
2013-10-05 20:25:00,70.9,67.5,30.05,SW,223,0.0,0.0,89,0.00,,,0.00,Wunderground v.1.15,2013-10-06 00:25:00,
2013-10-05 20:35:00,70.4,67.0,30.06,SW,223,0.0,0.0,89,0.00,,,0.00,Wunderground v.1.15,2013-10-06 00:35:00,
2013-10-05 20:40:00,70.2,66.8,30.06,SW,223,0.0,0.0,89,0.00,,,0.00,Wunderground v.1.15,2013-10-06 00:40:00,
2013-10-05 20:45:00,70.0,66.9,30.06,SW,223,0.0,0.0,90,0.00,,,0.00,Wunderground v.1.15,2013-10-06 00:45:00,
2013-10-05 20:50:00,69.8,66.7,30.06,SW,223,0.0,0.0,90,0.00,,,0.00,Wunderground v.1.15,2013-10-06 00:50:00,
2013-10-05 20:55:00,69.6,66.5,30.06,SW,223,0.0,0.0,90,0.00,,,0.00,Wunderground v.1.15,2013-10-06 00:55:00,
2013-10-05 21:00:00,69.4,66.3,30.06,SW,223,0.0,0.0,90,0.00,,,0.00,Wunderground v.1.15,2013-10-06 01:00:00,
2013-10-05 21:05:00,69.3,66.2,30.06,SW,223,0.0,0.0,90,0.00,,,0.00,Wunderground v.1.15,2013-10-06 01:05:00,
2013-10-05 21:10:00,69.2,66.5,30.06,SW,223,0.0,0.0,91,0.00,,,0.00,Wunderground v.1.15,2013-10-06 01:10:00,
2013-10-05 21:20:00,69.0,66.3,30.06,SW,223,0.0,0.0,91,0.00,,,0.00,Wunderground v.1.15,2013-10-06 01:20:00,
2013-10-05 21:25:00,68.9,66.2,30.06,SW,223,0.0,0.0,91,0.00,,,0.00,Wunderground v.1.15,2013-10-06 01:25:00,
2013-10-05 21:35:00,68.7,66.0,30.06,SW,223,0.0,0.0,91,0.00,,,0.00,Wunderground v.1.15,2013-10-06 01:35:00,
2013-10-05 21:40:00,68.6,65.9,30.06,SW,223,0.0,0.0,91,0.00,,,0.00,Wunderground v.1.15,2013-10-06 01:40:00,
2013-10-05 21:45:00,68.5,66.1,30.07,SW,223,0.0,0.0,92,0.00,,,0.00,Wunderground v.1.15,2013-10-06 01:45:00,
2013-10-05 21:50:00,68.4,66.0,30.07,SW,223,0.0,0.0,92,0.00,,,0.00,Wunderground v.1.15,2013-10-06 01:50:00,
2013-10-05 21:55:00,68.3,65.9,30.07,SW,223,0.0,0.0,92,0.00,,,0.00,Wunderground v.1.15,2013-10-06 01:55:00,
2013-10-05 22:00:00,68.3,65.9,30.07,SW,223,0.0,0.0,92,0.00,,,0.00,Wunderground v.1.15,2013-10-06 02:00:00,
2013-10-05 22:05:00,68.2,65.8,30.06,SW,223,0.0,0.0,92,0.00,,,0.00,Wunderground v.1.15,2013-10-06 02:05:00,
2013-10-05 22:10:00,68.2,65.8,30.07,SW,223,0.0,0.0,92,0.00,,,0.00,Wunderground v.1.15,2013-10-06 02:10:00,
2013-10-05 22:15:00,68.1,65.7,30.07,SW,223,0.0,0.0,92,0.00,,,0.00,Wunderground v.1.15,2013-10-06 02:15:00,
2013-10-05 22:20:00,68.2,65.8,30.07,SW,223,0.0,0.0,92,0.00,,,0.00,Wunderground v.1.15,2013-10-06 02:20:00,
2013-10-05 22:25:00,68.2,65.5,30.07,SW,223,0.0,0.0,91,0.00,,,0.00,Wunderground v.1.15,2013-10-06 02:25:00,
2013-10-05 22:30:00,68.2,65.5,30.07,SW,223,0.0,0.0,91,0.00,,,0.00,Wunderground v.1.15,2013-10-06 02:30:00,
2013-10-05 22:35:00,68.2,65.5,30.07,SW,223,0.0,0.0,91,0.00,,,0.00,Wunderground v.1.15,2013-10-06 02:35:00,
2013-10-05 22:45:00,68.3,65.6,30.07,SW,223,0.0,0.0,91,0.00,,,0.00,Wunderground v.1.15,2013-10-06 02:45:00,
2013-10-05 22:50:00,68.3,65.6,30.07,SW,223,0.0,0.0,91,0.00,,,0.00,Wunderground v.1.15,2013-10-06 02:50:00,
2013-10-05 22:55:00,68.3,65.6,30.07,SW,223,0.0,0.0,91,0.00,,,0.00,Wunderground v.1.15,2013-10-06 02:55:00,
2013-10-05 23:00:00,68.2,65.2,30.06,SW,223,0.0,0.0,90,0.00,,,0.00,Wunderground v.1.15,2013-10-06 03:00:00,
2013-10-05 23:05:00,68.2,65.2,30.06,SW,223,0.0,0.0,90,0.00,,,0.00,Wunderground v.1.15,2013-10-06 03:05:00,
2013-10-05 23:10:00,68.1,65.1,30.06,SW,223,0.0,0.0,90,0.00,,,0.00,Wunderground v.1.15,2013-10-06 03:10:00,
2013-10-05 23:15:00,68.0,65.0,30.06,SW,223,0.0,0.0,90,0.00,,,0.00,Wunderground v.1.15,2013-10-06 03:15:00,
2013-10-05 23:20:00,67.9,65.2,30.06,SW,223,0.0,0.0,91,0.00,,,0.00,Wunderground v.1.15,2013-10-06 03:20:00,
2013-10-05 23:25:00,67.7,65.0,30.06,SW,223,0.0,0.0,91,0.00,,,0.00,Wunderground v.1.15,2013-10-06 03:25:00,
2013-10-05 23:30:00,67.6,64.9,30.06,SW,223,0.0,0.0,91,0.00,,,0.00,Wunderground v.1.15,2013-10-06 03:30:00,
2013-10-05 23:35:00,67.5,64.8,30.06,SW,223,0.0,0.0,91,0.00,,,0.00,Wunderground v.1.15,2013-10-06 03:35:00,
2013-10-05 23:50:00,67.3,64.6,30.06,SW,223,0.0,0.0,91,0.00,,,0.00,Wunderground v.1.15,2013-10-06 03:50:00,
2013-10-05 23:55:00,67.3,64.6,30.06,SW,223,0.0,0.0,91,0.00,,,0.00,Wunderground v.1.15,2013-10-06 03:55:00,